PWSweather.com
Personal Weather Stations
Station Observations
KMIEASTT1
Tawas Bay, East Tawas, MI 48730

Tawas BayEast Tawas, MI 48730

Lat: 44.28, Lon: -83.48

Elevation: 600

Station Type: Davis VantagePro

http://www.tawasbayweather.com

High Low Average
Temperature 36.3°F2.4°C 23.6°F-4.7°C 29.7°F-1.3°C
Dew Point 30.9°F-0.6°C 21.6°F-5.8°C 26.4°F-3.1°C
Winds 9.0 mph 14.5 kmh Calm Calm 3.0 mph SW4.8 kmh SW
Wind Gusts 10.0 mph16.1 kmh -- 4.0 mph6.4 kmh
Humidity 92% 74% 87%
Pressure 30.45 in1031.2 mb 30.20 in1022.7 mb -
Precipitation 0.00 in0.0 mm - -
Hour Temp Dew Point Humidity Winds Wind Gusts Pressure Precip Precip Rate Daily Precip Total
12:02 AM 28.6°F-1.9°C 25.0°F-3.9°C 86% 1.0 mph W1.6 kmh W 2.0 mph3.2 kmh 30.45 in1031.2 mb 0.00 in0.0 mm 0.00 in/hr0.0 mm/hr 0.00 in0.0 mm
12:16 AM 28.5°F-1.9°C 24.9°F-3.9°C 86% 1.0 mph W1.6 kmh W 2.0 mph3.2 kmh 30.44 in1030.8 mb 0.00 in0.0 mm 0.00 in/hr0.0 mm/hr 0.00 in0.0 mm
12:31 AM 28.3°F-2.1°C 24.9°F-3.9°C 87% 1.0 mph W1.6 kmh W 1.0 mph1.6 kmh 30.45 in1031.2 mb 0.00 in0.0 mm 0.00 in/hr0.0 mm/hr 0.00 in0.0 mm
12:46 AM 27.9°F-2.3°C 24.5°F-4.2°C 87% Calm Calm 2.0 mph3.2 kmh 30.45 in1031.2 mb 0.00 in0.0 mm 0.00 in/hr0.0 mm/hr 0.00 in0.0 mm
01:00 AM 27.7°F-2.4°C 24.6°F-4.1°C 88% 1.0 mph W1.6 kmh W 2.0 mph3.2 kmh 30.45 in1031.2 mb 0.00 in0.0 mm 0.00 in/hr0.0 mm/hr 0.00 in0.0 mm
01:16 AM 28.2°F-2.1°C 25.1°F-3.8°C 88% 1.0 mph W1.6 kmh W 1.0 mph1.6 kmh 30.44 in1030.8 mb 0.00 in0.0 mm 0.00 in/hr0.0 mm/hr 0.00 in0.0 mm
01:31 AM 28.7°F-1.8°C 25.1°F-3.8°C 86% 1.0 mph W1.6 kmh W 2.0 mph3.2 kmh 30.45 in1031.2 mb 0.00 in0.0 mm 0.00 in/hr0.0 mm/hr 0.00 in0.0 mm
01:46 AM 28.1°F-2.2°C 24.5°F-4.2°C 86% 2.0 mph W3.2 kmh W 2.0 mph3.2 kmh 30.45 in1031.2 mb 0.00 in0.0 mm 0.00 in/hr0.0 mm/hr 0.00 in0.0 mm
02:02 AM 27.8°F-2.3°C 24.4°F-4.2°C 87% Calm Calm 1.0 mph1.6 kmh 30.44 in1030.8 mb 0.00 in0.0 mm 0.00 in/hr0.0 mm/hr 0.00 in0.0 mm
02:16 AM 27.9°F-2.3°C 24.3°F-4.3°C 86% Calm Calm -- 30.44 in1030.8 mb 0.00 in0.0 mm 0.00 in/hr0.0 mm/hr 0.00 in0.0 mm
02:31 AM 27.2°F-2.7°C 23.6°F-4.7°C 86% Calm Calm 2.0 mph3.2 kmh 30.44 in1030.8 mb 0.00 in0.0 mm 0.00 in/hr0.0 mm/hr 0.00 in0.0 mm
03:02 AM 26.2°F-3.2°C 23.4°F-4.8°C 89% 1.0 mph W1.6 kmh W 2.0 mph3.2 kmh 30.43 in1030.5 mb 0.00 in0.0 mm 0.00 in/hr0.0 mm/hr 0.00 in0.0 mm
03:16 AM 26.3°F-3.2°C 23.5°F-4.7°C 89% 2.0 mph W3.2 kmh W 2.0 mph3.2 kmh 30.43 in1030.5 mb 0.00 in0.0 mm 0.00 in/hr0.0 mm/hr 0.00 in0.0 mm
03:31 AM 26.3°F-3.2°C 23.2°F-4.9°C 88% 1.0 mph W1.6 kmh W 2.0 mph3.2 kmh 30.44 in1030.8 mb 0.00 in0.0 mm 0.00 in/hr0.0 mm/hr 0.00 in0.0 mm
03:45 AM 25.9°F-3.4°C 23.1°F-4.9°C 89% 1.0 mph W1.6 kmh W 2.0 mph3.2 kmh 30.43 in1030.5 mb 0.00 in0.0 mm 0.00 in/hr0.0 mm/hr 0.00 in0.0 mm
04:01 AM 25.8°F-3.4°C 23.0°F-5.0°C 89% 1.0 mph W1.6 kmh W 1.0 mph1.6 kmh 30.44 in1030.8 mb 0.00 in0.0 mm 0.00 in/hr0.0 mm/hr 0.00 in0.0 mm
04:16 AM 26.0°F-3.3°C 23.2°F-4.9°C 89% Calm Calm -- 30.43 in1030.5 mb 0.00 in0.0 mm 0.00 in/hr0.0 mm/hr 0.00 in0.0 mm
04:31 AM 25.8°F-3.4°C 22.7°F-5.2°C 88% 2.0 mph NW3.2 kmh NW 2.0 mph3.2 kmh 30.43 in1030.5 mb 0.00 in0.0 mm 0.00 in/hr0.0 mm/hr 0.00 in0.0 mm
04:46 AM 25.2°F-3.8°C 22.4°F-5.3°C 89% 1.0 mph NW1.6 kmh NW 2.0 mph3.2 kmh 30.43 in1030.5 mb 0.00 in0.0 mm 0.00 in/hr0.0 mm/hr 0.00 in0.0 mm
05:02 AM 25.1°F-3.8°C 22.6°F-5.2°C 90% 1.0 mph NW1.6 kmh NW 2.0 mph3.2 kmh 30.43 in1030.5 mb 0.00 in0.0 mm 0.00 in/hr0.0 mm/hr 0.00 in0.0 mm
05:16 AM 25.2°F-3.8°C 22.7°F-5.2°C 90% Calm Calm 2.0 mph3.2 kmh 30.43 in1030.5 mb 0.00 in0.0 mm 0.00 in/hr0.0 mm/hr 0.00 in0.0 mm
05:31 AM 25.6°F-3.6°C 23.1°F-4.9°C 90% 2.0 mph NW3.2 kmh NW 2.0 mph3.2 kmh 30.43 in1030.5 mb 0.00 in0.0 mm 0.00 in/hr0.0 mm/hr 0.00 in0.0 mm
05:46 AM 25.7°F-3.5°C 23.2°F-4.9°C 90% 1.0 mph NW1.6 kmh NW 2.0 mph3.2 kmh 30.42 in1030.1 mb 0.00 in0.0 mm 0.00 in/hr0.0 mm/hr 0.00 in0.0 mm
06:01 AM 25.5°F-3.6°C 22.7°F-5.2°C 89% 1.0 mph NW1.6 kmh NW 2.0 mph3.2 kmh 30.43 in1030.5 mb 0.00 in0.0 mm 0.00 in/hr0.0 mm/hr 0.00 in0.0 mm
06:16 AM 25.0°F-3.9°C 22.5°F-5.3°C 90% 1.0 mph NW1.6 kmh NW 2.0 mph3.2 kmh 30.43 in1030.5 mb 0.00 in0.0 mm 0.00 in/hr0.0 mm/hr 0.00 in0.0 mm
06:31 AM 24.7°F-4.1°C 22.2°F-5.4°C 90% 2.0 mph NW3.2 kmh NW 2.0 mph3.2 kmh 30.43 in1030.5 mb 0.00 in0.0 mm 0.00 in/hr0.0 mm/hr 0.00 in0.0 mm
06:46 AM 24.4°F-4.2°C 22.2°F-5.4°C 91% 1.0 mph NW1.6 kmh NW 2.0 mph3.2 kmh 30.43 in1030.5 mb 0.00 in0.0 mm 0.00 in/hr0.0 mm/hr 0.00 in0.0 mm
07:01 AM 24.2°F-4.3°C 22.0°F-5.6°C 91% 2.0 mph NW3.2 kmh NW 3.0 mph4.8 kmh 30.43 in1030.5 mb 0.00 in0.0 mm 0.00 in/hr0.0 mm/hr 0.00 in0.0 mm
07:16 AM 24.2°F-4.3°C 22.0°F-5.6°C 91% 1.0 mph NW1.6 kmh NW 2.0 mph3.2 kmh 30.43 in1030.5 mb 0.00 in0.0 mm 0.00 in/hr0.0 mm/hr 0.00 in0.0 mm
07:31 AM 24.3°F-4.3°C 22.1°F-5.5°C 91% 1.0 mph NW1.6 kmh NW 2.0 mph3.2 kmh 30.43 in1030.5 mb 0.00 in0.0 mm 0.00 in/hr0.0 mm/hr 0.00 in0.0 mm
07:46 AM 24.2°F-4.3°C 22.0°F-5.6°C 91% 2.0 mph NW3.2 kmh NW 3.0 mph4.8 kmh 30.43 in1030.5 mb 0.00 in0.0 mm 0.00 in/hr0.0 mm/hr 0.00 in0.0 mm
08:01 AM 24.2°F-4.3°C 22.0°F-5.6°C 91% 1.0 mph NW1.6 kmh NW 2.0 mph3.2 kmh 30.41 in1029.8 mb 0.00 in0.0 mm 0.00 in/hr0.0 mm/hr 0.00 in0.0 mm
08:15 AM 23.9°F-4.5°C 21.7°F-5.7°C 91% 2.0 mph NW3.2 kmh NW 2.0 mph3.2 kmh 30.40 in1029.5 mb 0.00 in0.0 mm 0.00 in/hr0.0 mm/hr 0.00 in0.0 mm
08:31 AM 23.7°F-4.6°C 21.7°F-5.7°C 92% 2.0 mph NW3.2 kmh NW 3.0 mph4.8 kmh 30.39 in1029.1 mb 0.00 in0.0 mm 0.00 in/hr0.0 mm/hr 0.00 in0.0 mm
08:47 AM 23.6°F-4.7°C 21.6°F-5.8°C 92% 2.0 mph NW3.2 kmh NW 2.0 mph3.2 kmh 30.39 in1029.1 mb 0.00 in0.0 mm 0.00 in/hr0.0 mm/hr 0.00 in0.0 mm
09:01 AM 23.6°F-4.7°C 21.6°F-5.8°C 92% 1.0 mph NW1.6 kmh NW 2.0 mph3.2 kmh 30.39 in1029.1 mb 0.00 in0.0 mm 0.00 in/hr0.0 mm/hr 0.00 in0.0 mm
09:16 AM 24.2°F-4.3°C 22.2°F-5.4°C 92% 1.0 mph NW1.6 kmh NW 2.0 mph3.2 kmh 30.39 in1029.1 mb 0.00 in0.0 mm 0.00 in/hr0.0 mm/hr 0.00 in0.0 mm
09:31 AM 25.7°F-3.5°C 23.4°F-4.8°C 91% 2.0 mph NW3.2 kmh NW 3.0 mph4.8 kmh 30.39 in1029.1 mb 0.00 in0.0 mm 0.00 in/hr0.0 mm/hr 0.00 in0.0 mm
09:46 AM 26.9°F-2.8°C 24.4°F-4.2°C 90% 1.0 mph N1.6 kmh N 3.0 mph4.8 kmh 30.39 in1029.1 mb 0.00 in0.0 mm 0.00 in/hr0.0 mm/hr 0.00 in0.0 mm
10:01 AM 28.4°F-2.0°C 25.3°F-3.7°C 88% 1.0 mph N1.6 kmh N 3.0 mph4.8 kmh 30.39 in1029.1 mb 0.00 in0.0 mm 0.00 in/hr0.0 mm/hr 0.00 in0.0 mm
10:16 AM 29.7°F-1.3°C 26.0°F-3.3°C 86% 1.0 mph N1.6 kmh N 2.0 mph3.2 kmh 30.39 in1029.1 mb 0.00 in0.0 mm 0.00 in/hr0.0 mm/hr 0.00 in0.0 mm
10:31 AM 31.0°F-0.6°C 27.0°F-2.8°C 85% 1.0 mph N1.6 kmh N 3.0 mph4.8 kmh 30.38 in1028.8 mb 0.00 in0.0 mm 0.00 in/hr0.0 mm/hr 0.00 in0.0 mm
10:46 AM 32.3°F0.2°C 27.7°F-2.4°C 83% 1.0 mph NNW1.6 kmh NNW 5.0 mph8.0 kmh 30.38 in1028.8 mb 0.00 in0.0 mm 0.00 in/hr0.0 mm/hr 0.00 in0.0 mm
11:02 AM 33.1°F0.6°C 28.2°F-2.1°C 82% 1.0 mph NNW1.6 kmh NNW 3.0 mph4.8 kmh 30.38 in1028.8 mb 0.00 in0.0 mm 0.00 in/hr0.0 mm/hr 0.00 in0.0 mm
11:15 AM 34.4°F1.3°C 28.9°F-1.7°C 80% 2.0 mph NNW3.2 kmh NNW 4.0 mph6.4 kmh 30.38 in1028.8 mb 0.00 in0.0 mm 0.00 in/hr0.0 mm/hr 0.00 in0.0 mm
11:30 AM 34.4°F1.3°C 28.6°F-1.9°C 79% 2.0 mph N3.2 kmh N 4.0 mph6.4 kmh 30.38 in1028.8 mb 0.00 in0.0 mm 0.00 in/hr0.0 mm/hr 0.00 in0.0 mm
12:00 PM 36.3°F2.4°C 28.8°F-1.8°C 74% 1.0 mph N1.6 kmh N 3.0 mph4.8 kmh 30.36 in1028.1 mb 0.00 in0.0 mm 0.00 in/hr0.0 mm/hr 0.00 in0.0 mm
12:15 PM 35.5°F1.9°C 29.3°F-1.5°C 78% 1.0 mph SE1.6 kmh SE 3.0 mph4.8 kmh 30.36 in1028.1 mb 0.00 in0.0 mm 0.00 in/hr0.0 mm/hr 0.00 in0.0 mm
12:30 PM 35.0°F1.7°C 29.5°F-1.4°C 80% 5.0 mph SE8.0 kmh SE 5.0 mph8.0 kmh 30.35 in1027.8 mb 0.00 in0.0 mm 0.00 in/hr0.0 mm/hr 0.00 in0.0 mm
12:46 PM 34.6°F1.4°C 30.3°F-0.9°C 84% 4.0 mph SE6.4 kmh SE 5.0 mph8.0 kmh 30.34 in1027.4 mb 0.00 in0.0 mm 0.00 in/hr0.0 mm/hr 0.00 in0.0 mm
01:02 PM 34.9°F1.6°C 30.6°F-0.8°C 84% 4.0 mph SE6.4 kmh SE 7.0 mph11.3 kmh 30.33 in1027.1 mb 0.00 in0.0 mm 0.00 in/hr0.0 mm/hr 0.00 in0.0 mm
01:16 PM 34.9°F1.6°C 30.9°F-0.6°C 85% 5.0 mph ESE8.0 kmh ESE 8.0 mph12.9 kmh 30.33 in1027.1 mb 0.00 in0.0 mm 0.00 in/hr0.0 mm/hr 0.00 in0.0 mm
01:31 PM 33.9°F1.1°C 29.9°F-1.2°C 85% 7.0 mph ESE11.3 kmh ESE 8.0 mph12.9 kmh 30.32 in1026.8 mb 0.00 in0.0 mm 0.00 in/hr0.0 mm/hr 0.00 in0.0 mm
01:46 PM 33.7°F0.9°C 30.0°F-1.1°C 86% 9.0 mph ESE14.5 kmh ESE 9.0 mph14.5 kmh 30.31 in1026.4 mb 0.00 in0.0 mm 0.00 in/hr0.0 mm/hr 0.00 in0.0 mm
02:02 PM 33.8°F1.0°C 30.1°F-1.1°C 86% 8.0 mph SE12.9 kmh SE 9.0 mph14.5 kmh 30.30 in1026.1 mb 0.00 in0.0 mm 0.00 in/hr0.0 mm/hr 0.00 in0.0 mm
02:16 PM 33.8°F1.0°C 30.1°F-1.1°C 86% 7.0 mph ESE11.3 kmh ESE 9.0 mph14.5 kmh 30.29 in1025.7 mb 0.00 in0.0 mm 0.00 in/hr0.0 mm/hr 0.00 in0.0 mm
02:31 PM 34.3°F1.3°C 30.3°F-0.9°C 85% 6.0 mph SE9.7 kmh SE 8.0 mph12.9 kmh 30.29 in1025.7 mb 0.00 in0.0 mm 0.00 in/hr0.0 mm/hr 0.00 in0.0 mm
02:46 PM 34.6°F1.4°C 30.3°F-0.9°C 84% 5.0 mph SE8.0 kmh SE 8.0 mph12.9 kmh 30.29 in1025.7 mb 0.00 in0.0 mm 0.00 in/hr0.0 mm/hr 0.00 in0.0 mm
03:02 PM 33.8°F1.0°C 29.5°F-1.4°C 84% 6.0 mph SE9.7 kmh SE 8.0 mph12.9 kmh 30.29 in1025.7 mb 0.00 in0.0 mm 0.00 in/hr0.0 mm/hr 0.00 in0.0 mm
03:16 PM 33.6°F0.9°C 29.9°F-1.2°C 86% 7.0 mph SSE11.3 kmh SSE 8.0 mph12.9 kmh 30.28 in1025.4 mb 0.00 in0.0 mm 0.00 in/hr0.0 mm/hr 0.00 in0.0 mm
03:31 PM 33.5°F0.8°C 29.8°F-1.2°C 86% 5.0 mph SSE8.0 kmh SSE 7.0 mph11.3 kmh 30.28 in1025.4 mb 0.00 in0.0 mm 0.00 in/hr0.0 mm/hr 0.00 in0.0 mm
03:46 PM 33.4°F0.8°C 29.4°F-1.4°C 85% 6.0 mph S9.7 kmh S 8.0 mph12.9 kmh 30.27 in1025.1 mb 0.00 in0.0 mm 0.00 in/hr0.0 mm/hr 0.00 in0.0 mm
04:01 PM 33.5°F0.8°C 29.8°F-1.2°C 86% 7.0 mph SE11.3 kmh SE 8.0 mph12.9 kmh 30.26 in1024.7 mb 0.00 in0.0 mm 0.00 in/hr0.0 mm/hr 0.00 in0.0 mm
04:16 PM 33.6°F0.9°C 29.9°F-1.2°C 86% 6.0 mph SSE9.7 kmh SSE 8.0 mph12.9 kmh 30.26 in1024.7 mb 0.00 in0.0 mm 0.00 in/hr0.0 mm/hr 0.00 in0.0 mm
04:31 PM 33.7°F0.9°C 30.3°F-0.9°C 87% 6.0 mph SE9.7 kmh SE 8.0 mph12.9 kmh 30.25 in1024.4 mb 0.00 in0.0 mm 0.00 in/hr0.0 mm/hr 0.00 in0.0 mm
04:46 PM 33.7°F0.9°C 30.3°F-0.9°C 87% 7.0 mph SE11.3 kmh SE 9.0 mph14.5 kmh 30.25 in1024.4 mb 0.00 in0.0 mm 0.00 in/hr0.0 mm/hr 0.00 in0.0 mm
05:02 PM 34.1°F1.2°C 30.6°F-0.8°C 87% 8.0 mph SE12.9 kmh SE 9.0 mph14.5 kmh 30.23 in1023.7 mb 0.00 in0.0 mm 0.00 in/hr0.0 mm/hr 0.00 in0.0 mm
05:16 PM 33.9°F1.1°C 30.5°F-0.8°C 87% 7.0 mph SE11.3 kmh SE 10.0 mph16.1 kmh 30.22 in1023.4 mb 0.00 in0.0 mm 0.00 in/hr0.0 mm/hr 0.00 in0.0 mm
05:31 PM 33.7°F0.9°C 30.3°F-0.9°C 87% 5.0 mph SE8.0 kmh SE 10.0 mph16.1 kmh 30.21 in1023.0 mb 0.00 in0.0 mm 0.00 in/hr0.0 mm/hr 0.00 in0.0 mm
05:46 PM 33.6°F0.9°C 30.4°F-0.9°C 88% 6.0 mph SE9.7 kmh SE 7.0 mph11.3 kmh 30.21 in1023.0 mb 0.00 in0.0 mm 0.00 in/hr0.0 mm/hr 0.00 in0.0 mm
06:01 PM 33.2°F0.7°C 30.0°F-1.1°C 88% 6.0 mph SSE9.7 kmh SSE 8.0 mph12.9 kmh 30.20 in1022.7 mb 0.00 in0.0 mm 0.00 in/hr0.0 mm/hr 0.00 in0.0 mm
06:16 PM 33.1°F0.6°C 29.9°F-1.2°C 88% 7.0 mph SSE11.3 kmh SSE 8.0 mph12.9 kmh 30.20 in1022.7 mb 0.00 in0.0 mm 0.00 in/hr0.0 mm/hr 0.00 in0.0 mm
06:31 PM 32.9°F0.5°C 30.0°F-1.1°C 89% 5.0 mph SE8.0 kmh SE 6.0 mph9.7 kmh 30.20 in1022.7 mb 0.00 in0.0 mm 0.00 in/hr0.0 mm/hr 0.00 in0.0 mm
06:46 PM 32.7°F0.4°C 30.1°F-1.1°C 90% 4.0 mph SE6.4 kmh SE 4.0 mph6.4 kmh 30.20 in1022.7 mb 0.00 in0.0 mm 0.00 in/hr0.0 mm/hr 0.00 in0.0 mm
07:01 PM 32.5°F0.3°C 30.2°F-1.0°C 91% 4.0 mph SE6.4 kmh SE 6.0 mph9.7 kmh 30.20 in1022.7 mb 0.00 in0.0 mm 0.00 in/hr0.0 mm/hr 0.00 in0.0 mm
07:16 PM 32.6°F0.3°C 30.3°F-0.9°C 91% 5.0 mph SE8.0 kmh SE 7.0 mph11.3 kmh 30.20 in1022.7 mb 0.00 in0.0 mm 0.00 in/hr0.0 mm/hr 0.00 in0.0 mm
07:31 PM 32.6°F0.3°C 29.7°F-1.3°C 89% 3.0 mph SSE4.8 kmh SSE 6.0 mph9.7 kmh 30.20 in1022.7 mb 0.00 in0.0 mm 0.00 in/hr0.0 mm/hr 0.00 in0.0 mm
07:46 PM 32.5°F0.3°C 29.9°F-1.2°C 90% 2.0 mph S3.2 kmh S 5.0 mph8.0 kmh 30.20 in1022.7 mb 0.00 in0.0 mm 0.00 in/hr0.0 mm/hr 0.00 in0.0 mm
08:02 PM 32.4°F0.2°C 29.5°F-1.4°C 89% 3.0 mph SSW4.8 kmh SSW 5.0 mph8.0 kmh 30.21 in1023.0 mb 0.00 in0.0 mm 0.00 in/hr0.0 mm/hr 0.00 in0.0 mm
08:16 PM 32.4°F0.2°C 29.5°F-1.4°C 89% 3.0 mph SSW4.8 kmh SSW 4.0 mph6.4 kmh 30.20 in1022.7 mb 0.00 in0.0 mm 0.00 in/hr0.0 mm/hr 0.00 in0.0 mm
08:31 PM 32.4°F0.2°C 29.5°F-1.4°C 89% 2.0 mph SW3.2 kmh SW 3.0 mph4.8 kmh 30.20 in1022.7 mb 0.00 in0.0 mm 0.00 in/hr0.0 mm/hr 0.00 in0.0 mm
08:45 PM 32.4°F0.2°C 29.8°F-1.2°C 90% 1.0 mph SW1.6 kmh SW 3.0 mph4.8 kmh 30.20 in1022.7 mb 0.00 in0.0 mm 0.00 in/hr0.0 mm/hr 0.00 in0.0 mm
09:02 PM 32.5°F0.3°C 29.9°F-1.2°C 90% 1.0 mph SW1.6 kmh SW 2.0 mph3.2 kmh 30.21 in1023.0 mb 0.00 in0.0 mm 0.00 in/hr0.0 mm/hr 0.00 in0.0 mm
09:17 PM 32.6°F0.3°C 29.7°F-1.3°C 89% Calm Calm 1.0 mph1.6 kmh 30.20 in1022.7 mb 0.00 in0.0 mm 0.00 in/hr0.0 mm/hr 0.00 in0.0 mm
09:31 PM 32.6°F0.3°C 29.7°F-1.3°C 89% Calm Calm 2.0 mph3.2 kmh 30.21 in1023.0 mb 0.00 in0.0 mm 0.00 in/hr0.0 mm/hr 0.00 in0.0 mm
09:46 PM 32.4°F0.2°C 29.3°F-1.5°C 88% 1.0 mph SW1.6 kmh SW 2.0 mph3.2 kmh 30.21 in1023.0 mb 0.00 in0.0 mm 0.00 in/hr0.0 mm/hr 0.00 in0.0 mm
10:02 PM 32.0°F0.0°C 28.9°F-1.7°C 88% 1.0 mph SW1.6 kmh SW 1.0 mph1.6 kmh 30.21 in1023.0 mb 0.00 in0.0 mm 0.00 in/hr0.0 mm/hr 0.00 in0.0 mm
10:16 PM 31.5°F-0.3°C 28.6°F-1.9°C 89% 1.0 mph SE1.6 kmh SE 2.0 mph3.2 kmh 30.21 in1023.0 mb 0.00 in0.0 mm 0.00 in/hr0.0 mm/hr 0.00 in0.0 mm
10:31 PM 30.9°F-0.6°C 28.1°F-2.2°C 89% 2.0 mph NE3.2 kmh NE 3.0 mph4.8 kmh 30.21 in1023.0 mb 0.00 in0.0 mm 0.00 in/hr0.0 mm/hr 0.00 in0.0 mm
10:46 PM 30.8°F-0.7°C 28.2°F-2.1°C 90% 1.0 mph NE1.6 kmh NE 2.0 mph3.2 kmh 30.21 in1023.0 mb 0.00 in0.0 mm 0.00 in/hr0.0 mm/hr 0.00 in0.0 mm
11:02 PM 30.7°F-0.7°C 28.1°F-2.2°C 90% Calm Calm 3.0 mph4.8 kmh 30.21 in1023.0 mb 0.00 in0.0 mm 0.00 in/hr0.0 mm/hr 0.00 in0.0 mm
11:15 PM 30.6°F-0.8°C 28.0°F-2.2°C 90% 1.0 mph NE1.6 kmh NE 2.0 mph3.2 kmh 30.21 in1023.0 mb 0.00 in0.0 mm 0.00 in/hr0.0 mm/hr 0.00 in0.0 mm
11:31 PM 30.2°F-1.0°C 27.6°F-2.4°C 90% Calm Calm 2.0 mph3.2 kmh 30.20 in1022.7 mb 0.00 in0.0 mm 0.00 in/hr0.0 mm/hr 0.00 in0.0 mm
11:46 PM 30.0°F-1.1°C 27.4°F-2.6°C 90% 1.0 mph NE1.6 kmh NE 2.0 mph3.2 kmh 30.20 in1022.7 mb 0.00 in0.0 mm 0.00 in/hr0.0 mm/hr 0.00 in0.0 mm